sensor_id;sensor_type;location;lat;lon;timestamp;temperature;humidity
42145;DHT22;27813;43.516;11.890;2023-12-14T00:02:31;8.20;98.20
42145;DHT22;27813;43.516;11.890;2023-12-14T00:06:36;8.20;98.20
42145;DHT22;27813;43.516;11.890;2023-12-14T00:10:40;8.30;98.40
42145;DHT22;27813;43.516;11.890;2023-12-14T00:14:44;8.40;98.60
42145;DHT22;27813;43.516;11.890;2023-12-14T00:18:48;8.70;98.80
42145;DHT22;27813;43.516;11.890;2023-12-14T00:22:52;8.90;99.00
42145;DHT22;27813;43.516;11.890;2023-12-14T00:26:56;9.10;99.00
42145;DHT22;27813;43.516;11.890;2023-12-14T00:31:00;9.20;99.00
42145;DHT22;27813;43.516;11.890;2023-12-14T00:35:04;9.20;98.90
42145;DHT22;27813;43.516;11.890;2023-12-14T00:39:10;9.20;98.80
42145;DHT22;27813;43.516;11.890;2023-12-14T00:43:13;9.20;98.80
42145;DHT22;27813;43.516;11.890;2023-12-14T00:47:17;9.20;98.80
42145;DHT22;27813;43.516;11.890;2023-12-14T00:51:22;9.20;98.80
42145;DHT22;27813;43.516;11.890;2023-12-14T00:55:25;9.10;98.80
42145;DHT22;27813;43.516;11.890;2023-12-14T00:59:29;9.10;98.80
42145;DHT22;27813;43.516;11.890;2023-12-14T01:03:34;9.10;98.80
42145;DHT22;27813;43.516;11.890;2023-12-14T01:07:38;9.00;98.70
42145;DHT22;27813;43.516;11.890;2023-12-14T01:11:42;8.90;98.50
42145;DHT22;27813;43.516;11.890;2023-12-14T01:15:46;8.50;98.10
42145;DHT22;27813;43.516;11.890;2023-12-14T01:19:50;8.40;98.10
42145;DHT22;27813;43.516;11.890;2023-12-14T01:23:55;8.20;98.10
42145;DHT22;27813;43.516;11.890;2023-12-14T01:27:59;8.20;98.30
42145;DHT22;27813;43.516;11.890;2023-12-14T01:32:03;8.20;98.40
42145;DHT22;27813;43.516;11.890;2023-12-14T01:36:11;8.30;98.50
42145;DHT22;27813;43.516;11.890;2023-12-14T01:40:24;8.30;98.50
42145;DHT22;27813;43.516;11.890;2023-12-14T01:44:28;8.30;98.60
42145;DHT22;27813;43.516;11.890;2023-12-14T01:48:32;8.40;98.60
42145;DHT22;27813;43.516;11.890;2023-12-14T01:52:39;8.30;98.50
42145;DHT22;27813;43.516;11.890;2023-12-14T01:56:42;8.20;98.30
42145;DHT22;27813;43.516;11.890;2023-12-14T02:05:35;8.00;98.10
42145;DHT22;27813;43.516;11.890;2023-12-14T02:09:39;7.80;97.90
42145;DHT22;27813;43.516;11.890;2023-12-14T02:13:43;7.70;97.90
42145;DHT22;27813;43.516;11.890;2023-12-14T02:17:47;7.60;97.90
42145;DHT22;27813;43.516;11.890;2023-12-14T02:21:53;7.50;97.80
42145;DHT22;27813;43.516;11.890;2023-12-14T02:25:57;7.40;97.80
42145;DHT22;27813;43.516;11.890;2023-12-14T02:30:01;7.40;98.10
42145;DHT22;27813;43.516;11.890;2023-12-14T02:34:05;7.50;98.30
42145;DHT22;27813;43.516;11.890;2023-12-14T02:38:10;7.40;98.10
42145;DHT22;27813;43.516;11.890;2023-12-14T02:42:15;7.40;98.10
42145;DHT22;27813;43.516;11.890;2023-12-14T02:46:19;7.50;98.30
42145;DHT22;27813;43.516;11.890;2023-12-14T02:50:23;7.40;98.10
42145;DHT22;27813;43.516;11.890;2023-12-14T02:54:27;7.40;98.00
42145;DHT22;27813;43.516;11.890;2023-12-14T02:58:31;7.20;97.90
42145;DHT22;27813;43.516;11.890;2023-12-14T03:19:42;7.00;98.00
42145;DHT22;27813;43.516;11.890;2023-12-14T03:23:47;7.00;98.00
42145;DHT22;27813;43.516;11.890;2023-12-14T03:27:53;7.00;98.00
42145;DHT22;27813;43.516;11.890;2023-12-14T03:31:58;6.90;97.70
42145;DHT22;27813;43.516;11.890;2023-12-14T03:36:02;6.70;97.60
42145;DHT22;27813;43.516;11.890;2023-12-14T03:40:07;6.70;97.60
42145;DHT22;27813;43.516;11.890;2023-12-14T03:44:11;6.70;97.60
42145;DHT22;27813;43.516;11.890;2023-12-14T03:48:15;6.60;97.50
42145;DHT22;27813;43.516;11.890;2023-12-14T03:52:20;6.60;97.60
42145;DHT22;27813;43.516;11.890;2023-12-14T03:56:24;6.50;97.50
42145;DHT22;27813;43.516;11.890;2023-12-14T04:00:29;6.40;97.40
42145;DHT22;27813;43.516;11.890;2023-12-14T04:04:33;6.40;97.40
42145;DHT22;27813;43.516;11.890;2023-12-14T04:08:37;6.40;97.50
42145;DHT22;27813;43.516;11.890;2023-12-14T04:12:43;6.30;97.60
42145;DHT22;27813;43.516;11.890;2023-12-14T04:16:51;6.40;97.80
42145;DHT22;27813;43.516;11.890;2023-12-14T04:20:55;6.50;98.00
42145;DHT22;27813;43.516;11.890;2023-12-14T04:24:59;6.50;98.00
42145;DHT22;27813;43.516;11.890;2023-12-14T04:29:04;6.60;98.00
42145;DHT22;27813;43.516;11.890;2023-12-14T04:33:09;6.60;98.00
42145;DHT22;27813;43.516;11.890;2023-12-14T04:37:15;6.60;97.80
42145;DHT22;27813;43.516;11.890;2023-12-14T04:41:20;6.40;97.60
42145;DHT22;27813;43.516;11.890;2023-12-14T04:45:24;6.40;97.60
42145;DHT22;27813;43.516;11.890;2023-12-14T04:49:28;6.40;97.60
42145;DHT22;27813;43.516;11.890;2023-12-14T04:53:32;6.30;97.60
42145;DHT22;27813;43.516;11.890;2023-12-14T04:57:36;6.40;97.80
42145;DHT22;27813;43.516;11.890;2023-12-14T05:01:40;6.30;97.70
42145;DHT22;27813;43.516;11.890;2023-12-14T05:05:44;6.30;97.50
42145;DHT22;27813;43.516;11.890;2023-12-14T05:09:49;6.20;97.40
42145;DHT22;27813;43.516;11.890;2023-12-14T05:13:53;6.10;97.40
42145;DHT22;27813;43.516;11.890;2023-12-14T05:17:57;6.00;97.50
42145;DHT22;27813;43.516;11.890;2023-12-14T05:22:03;6.00;97.70
42145;DHT22;27813;43.516;11.890;2023-12-14T05:26:08;6.10;98.00
42145;DHT22;27813;43.516;11.890;2023-12-14T05:30:12;6.20;98.30
42145;DHT22;27813;43.516;11.890;2023-12-14T05:34:16;6.40;98.30
42145;DHT22;27813;43.516;11.890;2023-12-14T05:38:20;6.30;98.30
42145;DHT22;27813;43.516;11.890;2023-12-14T05:42:24;6.30;98.10
42145;DHT22;27813;43.516;11.890;2023-12-14T05:46:28;6.20;97.90
42145;DHT22;27813;43.516;11.890;2023-12-14T05:50:32;6.10;97.80
42145;DHT22;27813;43.516;11.890;2023-12-14T05:54:38;6.00;97.70
42145;DHT22;27813;43.516;11.890;2023-12-14T05:58:45;5.90;97.70
42145;DHT22;27813;43.516;11.890;2023-12-14T06:02:49;5.90;97.70
42145;DHT22;27813;43.516;11.890;2023-12-14T06:06:56;5.90;97.70
42145;DHT22;27813;43.516;11.890;2023-12-14T06:11:00;5.90;97.90
42145;DHT22;27813;43.516;11.890;2023-12-14T06:15:05;5.90;98.10
42145;DHT22;27813;43.516;11.890;2023-12-14T06:19:09;5.90;97.90
42145;DHT22;27813;43.516;11.890;2023-12-14T06:23:16;5.80;97.50
42145;DHT22;27813;43.516;11.890;2023-12-14T06:27:20;5.60;97.20
42145;DHT22;27813;43.516;11.890;2023-12-14T06:31:26;5.50;97.00
42145;DHT22;27813;43.516;11.890;2023-12-14T06:35:31;5.30;97.10
42145;DHT22;27813;43.516;11.890;2023-12-14T06:39:35;5.20;97.20
42145;DHT22;27813;43.516;11.890;2023-12-14T06:43:41;5.20;97.20
42145;DHT22;27813;43.516;11.890;2023-12-14T06:47:48;5.20;97.30
42145;DHT22;27813;43.516;11.890;2023-12-14T06:51:54;5.30;97.60
42145;DHT22;27813;43.516;11.890;2023-12-14T06:55:59;5.40;97.70
42145;DHT22;27813;43.516;11.890;2023-12-14T07:00:04;5.40;97.60
42145;DHT22;27813;43.516;11.890;2023-12-14T07:04:08;5.30;97.40
42145;DHT22;27813;43.516;11.890;2023-12-14T07:08:18;5.30;97.50
42145;DHT22;27813;43.516;11.890;2023-12-14T07:12:23;5.30;97.80
42145;DHT22;27813;43.516;11.890;2023-12-14T07:16:28;5.50;98.10
42145;DHT22;27813;43.516;11.890;2023-12-14T07:20:36;5.70;98.30
42145;DHT22;27813;43.516;11.890;2023-12-14T07:24:39;5.80;98.40
42145;DHT22;27813;43.516;11.890;2023-12-14T07:28:55;6.00;98.50
42145;DHT22;27813;43.516;11.890;2023-12-14T07:32:59;6.20;98.70
42145;DHT22;27813;43.516;11.890;2023-12-14T07:37:04;6.40;98.80
42145;DHT22;27813;43.516;11.890;2023-12-14T07:41:10;6.70;99.10
42145;DHT22;27813;43.516;11.890;2023-12-14T07:45:15;7.10;99.20
42145;DHT22;27813;43.516;11.890;2023-12-14T07:49:19;7.20;99.20
42145;DHT22;27813;43.516;11.890;2023-12-14T07:53:24;7.40;99.20
42145;DHT22;27813;43.516;11.890;2023-12-14T07:57:28;7.50;99.20
42145;DHT22;27813;43.516;11.890;2023-12-14T08:01:34;7.60;99.20
42145;DHT22;27813;43.516;11.890;2023-12-14T08:05:39;7.80;99.20
42145;DHT22;27813;43.516;11.890;2023-12-14T08:09:43;8.00;99.30
42145;DHT22;27813;43.516;11.890;2023-12-14T08:13:47;8.10;99.30
42145;DHT22;27813;43.516;11.890;2023-12-14T08:17:54;8.40;99.40
42145;DHT22;27813;43.516;11.890;2023-12-14T08:21:58;8.70;99.50
42145;DHT22;27813;43.516;11.890;2023-12-14T08:26:02;8.90;99.50
42145;DHT22;27813;43.516;11.890;2023-12-14T08:30:07;9.00;99.50
42145;DHT22;27813;43.516;11.890;2023-12-14T08:34:12;9.00;99.50
42145;DHT22;27813;43.516;11.890;2023-12-14T08:38:16;9.00;99.50
42145;DHT22;27813;43.516;11.890;2023-12-14T08:42:21;8.90;99.40
42145;DHT22;27813;43.516;11.890;2023-12-14T08:46:25;8.80;99.30
42145;DHT22;27813;43.516;11.890;2023-12-14T08:50:30;8.70;99.20
42145;DHT22;27813;43.516;11.890;2023-12-14T08:54:34;8.60;99.10
42145;DHT22;27813;43.516;11.890;2023-12-14T08:58:38;8.50;99.00
42145;DHT22;27813;43.516;11.890;2023-12-14T09:09:27;8.40;98.90
42145;DHT22;27813;43.516;11.890;2023-12-14T09:13:33;8.30;99.00
42145;DHT22;27813;43.516;11.890;2023-12-14T09:17:37;8.40;99.00
42145;DHT22;27813;43.516;11.890;2023-12-14T09:21:42;8.30;99.00
42145;DHT22;27813;43.516;11.890;2023-12-14T09:25:50;8.30;99.00
42145;DHT22;27813;43.516;11.890;2023-12-14T09:29:57;8.40;99.10
42145;DHT22;27813;43.516;11.890;2023-12-14T09:34:01;8.40;99.10
42145;DHT22;27813;43.516;11.890;2023-12-14T09:38:06;8.50;99.10
42145;DHT22;27813;43.516;11.890;2023-12-14T09:42:17;8.60;99.20
42145;DHT22;27813;43.516;11.890;2023-12-14T09:46:23;8.60;99.20
42145;DHT22;27813;43.516;11.890;2023-12-14T09:50:31;8.70;99.30
42145;DHT22;27813;43.516;11.890;2023-12-14T09:54:36;8.90;99.40
42145;DHT22;27813;43.516;11.890;2023-12-14T09:58:40;9.00;99.40
42145;DHT22;27813;43.516;11.890;2023-12-14T12:39:57;15.20;99.90
42145;DHT22;27813;43.516;11.890;2023-12-14T12:44:01;15.20;99.80
42145;DHT22;27813;43.516;11.890;2023-12-14T12:48:10;15.10;99.70
42145;DHT22;27813;43.516;11.890;2023-12-14T12:52:14;14.90;99.40
42145;DHT22;27813;43.516;11.890;2023-12-14T12:56:18;14.70;99.20
42145;DHT22;27813;43.516;11.890;2023-12-14T13:00:22;14.40;98.90
42145;DHT22;27813;43.516;11.890;2023-12-14T13:04:27;14.30;98.90
42145;DHT22;27813;43.516;11.890;2023-12-14T13:08:33;14.20;99.00
42145;DHT22;27813;43.516;11.890;2023-12-14T13:12:37;14.20;99.00
42145;DHT22;27813;43.516;11.890;2023-12-14T13:16:41;14.00;98.60
42145;DHT22;27813;43.516;11.890;2023-12-14T13:20:46;13.70;98.30
42145;DHT22;27813;43.516;11.890;2023-12-14T13:24:50;13.40;98.20
42145;DHT22;27813;43.516;11.890;2023-12-14T13:28:54;13.10;98.20
42145;DHT22;27813;43.516;11.890;2023-12-14T13:32:57;13.00;98.40
42145;DHT22;27813;43.516;11.890;2023-12-14T13:37:02;12.80;98.40
42145;DHT22;27813;43.516;11.890;2023-12-14T13:41:06;12.70;98.50
42145;DHT22;27813;43.516;11.890;2023-12-14T13:45:11;12.50;98.50
42145;DHT22;27813;43.516;11.890;2023-12-14T13:49:15;12.50;98.60
42145;DHT22;27813;43.516;11.890;2023-12-14T13:53:19;12.40;98.70
42145;DHT22;27813;43.516;11.890;2023-12-14T13:57:24;12.40;98.80
42145;DHT22;27813;43.516;11.890;2023-12-14T14:01:27;12.40;98.80
42145;DHT22;27813;43.516;11.890;2023-12-14T14:05:32;12.40;98.80
42145;DHT22;27813;43.516;11.890;2023-12-14T14:09:37;12.40;98.70
42145;DHT22;27813;43.516;11.890;2023-12-14T14:13:42;12.30;98.70
42145;DHT22;27813;43.516;11.890;2023-12-14T14:17:46;12.30;98.70
42145;DHT22;27813;43.516;11.890;2023-12-14T14:21:56;12.20;98.70
42145;DHT22;27813;43.516;11.890;2023-12-14T14:25:59;12.20;98.80
42145;DHT22;27813;43.516;11.890;2023-12-14T14:30:04;12.10;98.60
42145;DHT22;27813;43.516;11.890;2023-12-14T14:34:09;12.00;98.50
42145;DHT22;27813;43.516;11.890;2023-12-14T14:38:13;11.80;98.50
42145;DHT22;27813;43.516;11.890;2023-12-14T14:42:18;11.70;98.40
42145;DHT22;27813;43.516;11.890;2023-12-14T14:46:22;11.50;98.30
42145;DHT22;27813;43.516;11.890;2023-12-14T14:50:26;11.40;98.30
42145;DHT22;27813;43.516;11.890;2023-12-14T14:54:29;11.20;98.30
42145;DHT22;27813;43.516;11.890;2023-12-14T14:58:33;11.10;98.30
42145;DHT22;27813;43.516;11.890;2023-12-14T15:02:37;10.90;98.20
42145;DHT22;27813;43.516;11.890;2023-12-14T15:06:41;10.70;98.20
42145;DHT22;27813;43.516;11.890;2023-12-14T15:10:45;10.60;98.20
42145;DHT22;27813;43.516;11.890;2023-12-14T15:14:49;10.40;98.30
42145;DHT22;27813;43.516;11.890;2023-12-14T15:18:53;10.40;98.20
42145;DHT22;27813;43.516;11.890;2023-12-14T15:22:58;10.20;98.20
42145;DHT22;27813;43.516;11.890;2023-12-14T15:27:06;10.10;98.20
42145;DHT22;27813;43.516;11.890;2023-12-14T15:31:12;9.90;98.10
42145;DHT22;27813;43.516;11.890;2023-12-14T15:35:20;9.80;98.00
42145;DHT22;27813;43.516;11.890;2023-12-14T15:39:24;9.70;98.10
42145;DHT22;27813;43.516;11.890;2023-12-14T15:43:29;9.60;98.30
42145;DHT22;27813;43.516;11.890;2023-12-14T15:47:33;9.50;98.30
42145;DHT22;27813;43.516;11.890;2023-12-14T15:51:39;9.40;98.20
42145;DHT22;27813;43.516;11.890;2023-12-14T15:55:43;9.30;98.10
42145;DHT22;27813;43.516;11.890;2023-12-14T15:59:47;9.20;98.00
42145;DHT22;27813;43.516;11.890;2023-12-14T16:03:51;9.10;98.00
42145;DHT22;27813;43.516;11.890;2023-12-14T16:07:55;9.00;98.00
42145;DHT22;27813;43.516;11.890;2023-12-14T16:12:01;8.90;98.00
42145;DHT22;27813;43.516;11.890;2023-12-14T16:16:10;8.80;98.10
42145;DHT22;27813;43.516;11.890;2023-12-14T16:20:13;8.70;97.90
42145;DHT22;27813;43.516;11.890;2023-12-14T16:24:17;8.50;98.00
42145;DHT22;27813;43.516;11.890;2023-12-14T16:28:21;8.50;98.10
42145;DHT22;27813;43.516;11.890;2023-12-14T16:32:26;8.40;98.00
42145;DHT22;27813;43.516;11.890;2023-12-14T16:36:30;8.40;98.00
42145;DHT22;27813;43.516;11.890;2023-12-14T16:40:34;8.30;97.70
42145;DHT22;27813;43.516;11.890;2023-12-14T16:44:38;8.20;97.80
42145;DHT22;27813;43.516;11.890;2023-12-14T16:48:44;8.10;98.00
42145;DHT22;27813;43.516;11.890;2023-12-14T16:52:49;8.20;98.10
42145;DHT22;27813;43.516;11.890;2023-12-14T16:56:54;8.20;98.20
42145;DHT22;27813;43.516;11.890;2023-12-14T17:00:57;8.20;98.20
42145;DHT22;27813;43.516;11.890;2023-12-14T17:05:01;8.20;98.30
42145;DHT22;27813;43.516;11.890;2023-12-14T17:09:07;8.20;98.40
42145;DHT22;27813;43.516;11.890;2023-12-14T17:13:10;8.20;98.10
42145;DHT22;27813;43.516;11.890;2023-12-14T17:17:18;8.20;98.10
42145;DHT22;27813;43.516;11.890;2023-12-14T17:21:24;8.20;98.30
42145;DHT22;27813;43.516;11.890;2023-12-14T17:25:28;8.30;98.40
42145;DHT22;27813;43.516;11.890;2023-12-14T17:29:32;8.40;98.40
42145;DHT22;27813;43.516;11.890;2023-12-14T17:33:36;8.50;98.50
42145;DHT22;27813;43.516;11.890;2023-12-14T17:37:40;8.50;98.20
42145;DHT22;27813;43.516;11.890;2023-12-14T17:41:46;8.40;98.00
42145;DHT22;27813;43.516;11.890;2023-12-14T17:45:50;8.20;97.80
42145;DHT22;27813;43.516;11.890;2023-12-14T17:49:54;8.10;97.60
42145;DHT22;27813;43.516;11.890;2023-12-14T17:54:00;8.00;97.60
42145;DHT22;27813;43.516;11.890;2023-12-14T17:58:05;7.90;97.60
42145;DHT22;27813;43.516;11.890;2023-12-14T18:02:08;7.90;97.90
42145;DHT22;27813;43.516;11.890;2023-12-14T18:06:15;8.00;98.00
42145;DHT22;27813;43.516;11.890;2023-12-14T18:10:21;8.10;97.90
42145;DHT22;27813;43.516;11.890;2023-12-14T18:14:25;8.10;97.90
42145;DHT22;27813;43.516;11.890;2023-12-14T18:18:30;8.10;97.90
42145;DHT22;27813;43.516;11.890;2023-12-14T18:22:34;8.10;97.80
42145;DHT22;27813;43.516;11.890;2023-12-14T18:26:38;8.10;97.80
42145;DHT22;27813;43.516;11.890;2023-12-14T18:30:42;8.10;97.80
42145;DHT22;27813;43.516;11.890;2023-12-14T18:34:46;8.00;97.70
42145;DHT22;27813;43.516;11.890;2023-12-14T18:38:51;7.90;97.40
42145;DHT22;27813;43.516;11.890;2023-12-14T18:42:55;7.80;97.20
42145;DHT22;27813;43.516;11.890;2023-12-14T18:46:59;7.50;96.90
42145;DHT22;27813;43.516;11.890;2023-12-14T18:51:04;7.40;96.80
42145;DHT22;27813;43.516;11.890;2023-12-14T18:55:08;7.30;96.90
42145;DHT22;27813;43.516;11.890;2023-12-14T18:59:13;7.10;96.80
42145;DHT22;27813;43.516;11.890;2023-12-14T19:03:17;7.00;96.80
42145;DHT22;27813;43.516;11.890;2023-12-14T19:07:21;7.00;97.10
42145;DHT22;27813;43.516;11.890;2023-12-14T19:11:25;7.00;97.30
42145;DHT22;27813;43.516;11.890;2023-12-14T19:15:30;7.10;97.30
42145;DHT22;27813;43.516;11.890;2023-12-14T19:19:37;7.00;97.20
42145;DHT22;27813;43.516;11.890;2023-12-14T19:23:42;7.20;97.60
42145;DHT22;27813;43.516;11.890;2023-12-14T19:27:46;7.20;97.40
42145;DHT22;27813;43.516;11.890;2023-12-14T19:31:57;7.20;97.40
42145;DHT22;27813;43.516;11.890;2023-12-14T19:36:02;7.10;97.20
42145;DHT22;27813;43.516;11.890;2023-12-14T19:40:08;7.10;97.10
42145;DHT22;27813;43.516;11.890;2023-12-14T19:44:15;7.00;96.90
42145;DHT22;27813;43.516;11.890;2023-12-14T19:48:23;7.00;97.00
42145;DHT22;27813;43.516;11.890;2023-12-14T19:52:30;6.90;96.90
42145;DHT22;27813;43.516;11.890;2023-12-14T19:56:38;6.80;96.80
42145;DHT22;27813;43.516;11.890;2023-12-14T20:00:47;6.90;97.10
42145;DHT22;27813;43.516;11.890;2023-12-14T20:04:54;7.00;97.20
42145;DHT22;27813;43.516;11.890;2023-12-14T20:09:02;6.90;96.90
42145;DHT22;27813;43.516;11.890;2023-12-14T20:13:09;6.90;96.80
42145;DHT22;27813;43.516;11.890;2023-12-14T20:17:14;6.80;96.80
42145;DHT22;27813;43.516;11.890;2023-12-14T20:21:19;6.90;97.10
42145;DHT22;27813;43.516;11.890;2023-12-14T20:25:29;6.90;97.00
42145;DHT22;27813;43.516;11.890;2023-12-14T20:29:36;6.90;97.10
42145;DHT22;27813;43.516;11.890;2023-12-14T20:33:42;6.90;97.20
42145;DHT22;27813;43.516;11.890;2023-12-14T20:37:47;7.00;97.30
42145;DHT22;27813;43.516;11.890;2023-12-14T20:41:54;7.00;97.00
42145;DHT22;27813;43.516;11.890;2023-12-14T20:45:59;7.00;97.10
42145;DHT22;27813;43.516;11.890;2023-12-14T20:50:03;7.00;97.10
42145;DHT22;27813;43.516;11.890;2023-12-14T20:54:09;6.90;96.80
42145;DHT22;27813;43.516;11.890;2023-12-14T20:58:13;6.90;96.70
42145;DHT22;27813;43.516;11.890;2023-12-14T21:02:19;6.80;96.80
42145;DHT22;27813;43.516;11.890;2023-12-14T21:06:24;6.80;96.80
42145;DHT22;27813;43.516;11.890;2023-12-14T21:10:35;6.80;96.70
42145;DHT22;27813;43.516;11.890;2023-12-14T21:14:39;6.80;97.00
42145;DHT22;27813;43.516;11.890;2023-12-14T21:18:48;6.70;96.90
42145;DHT22;27813;43.516;11.890;2023-12-14T21:23:03;6.70;96.60
42145;DHT22;27813;43.516;11.890;2023-12-14T21:27:08;6.60;96.60
42145;DHT22;27813;43.516;11.890;2023-12-14T21:31:32;6.60;96.80
42145;DHT22;27813;43.516;11.890;2023-12-14T21:35:41;6.60;96.90
42145;DHT22;27813;43.516;11.890;2023-12-14T21:39:48;6.70;97.00
42145;DHT22;27813;43.516;11.890;2023-12-14T21:43:54;6.50;96.80
42145;DHT22;27813;43.516;11.890;2023-12-14T21:48:05;6.50;96.80
42145;DHT22;27813;43.516;11.890;2023-12-14T21:52:16;6.50;96.60
42145;DHT22;27813;43.516;11.890;2023-12-14T21:56:20;6.50;96.80
42145;DHT22;27813;43.516;11.890;2023-12-14T22:00:25;6.50;96.80
42145;DHT22;27813;43.516;11.890;2023-12-14T22:04:29;6.60;97.00
42145;DHT22;27813;43.516;11.890;2023-12-14T22:08:33;6.60;96.90
42145;DHT22;27813;43.516;11.890;2023-12-14T22:12:37;6.50;96.80
42145;DHT22;27813;43.516;11.890;2023-12-14T22:16:41;6.60;96.80
42145;DHT22;27813;43.516;11.890;2023-12-14T22:20:45;6.50;96.80
42145;DHT22;27813;43.516;11.890;2023-12-14T22:24:49;6.60;96.80
42145;DHT22;27813;43.516;11.890;2023-12-14T22:28:55;6.60;96.90
42145;DHT22;27813;43.516;11.890;2023-12-14T22:33:01;6.50;96.80
42145;DHT22;27813;43.516;11.890;2023-12-14T22:37:08;6.50;96.80
42145;DHT22;27813;43.516;11.890;2023-12-14T22:41:16;6.50;96.70
42145;DHT22;27813;43.516;11.890;2023-12-14T22:45:20;6.50;97.00
42145;DHT22;27813;43.516;11.890;2023-12-14T22:49:24;6.70;97.20
42145;DHT22;27813;43.516;11.890;2023-12-14T22:53:28;6.80;97.20
42145;DHT22;27813;43.516;11.890;2023-12-14T22:57:32;6.90;97.10
42145;DHT22;27813;43.516;11.890;2023-12-14T23:01:37;6.90;97.00
42145;DHT22;27813;43.516;11.890;2023-12-14T23:05:41;6.80;96.70
42145;DHT22;27813;43.516;11.890;2023-12-14T23:09:46;6.80;96.80
42145;DHT22;27813;43.516;11.890;2023-12-14T23:13:50;6.80;96.70
42145;DHT22;27813;43.516;11.890;2023-12-14T23:17:54;6.80;96.80
42145;DHT22;27813;43.516;11.890;2023-12-14T23:21:57;6.80;96.80
42145;DHT22;27813;43.516;11.890;2023-12-14T23:26:04;6.70;96.70
42145;DHT22;27813;43.516;11.890;2023-12-14T23:30:08;6.70;96.50
42145;DHT22;27813;43.516;11.890;2023-12-14T23:34:12;6.70;96.90
42145;DHT22;27813;43.516;11.890;2023-12-14T23:38:15;6.80;96.90
42145;DHT22;27813;43.516;11.890;2023-12-14T23:42:20;6.70;96.80
42145;DHT22;27813;43.516;11.890;2023-12-14T23:46:23;6.70;96.80
42145;DHT22;27813;43.516;11.890;2023-12-14T23:50:28;6.80;97.00
42145;DHT22;27813;43.516;11.890;2023-12-14T23:54:32;6.80;96.90
42145;DHT22;27813;43.516;11.890;2023-12-14T23:58:35;6.80;97.10
